Time;durP1;ratioP1;P1;durP2;ratioP2;P2;SDS_P1;SDS_P2;PMS_P1;PMS_P2;Temp;Humidity;BMP_temperature;BMP_pressure;BME280_temperature;BME280_humidity;BME280_pressure;Samples;Min_cycle;Max_cycle;Signal;HPM_P1;HPM_P2
2022/04/28 00:01:12;;;;;;;7.27;6.50;;;10.70;1.00;;;;;;5103719;28;20522;-57
2022/04/28 00:03:37;;;;;;;9.23;6.60;;;10.60;1.00;;;;;;5094770;28;20181;-58
2022/04/28 00:06:03;;;;;;;12.07;7.23;;;10.50;1.00;;;;;;5075120;28;20466;-58
2022/04/28 00:08:28;;;;;;;8.33;6.40;;;10.40;1.00;;;;;;5107171;28;20225;-57
2022/04/28 00:10:54;;;;;;;7.23;6.63;;;10.40;1.00;;;;;;5075967;28;20191;-58
2022/04/28 00:13:20;;;;;;;8.03;6.40;;;10.30;1.00;;;;;;5092829;28;20204;-58
2022/04/28 00:15:45;;;;;;;8.03;6.70;;;10.20;1.00;;;;;;5105470;28;20239;-58
2022/04/28 00:18:11;;;;;;;7.30;6.60;;;10.20;1.00;;;;;;5093173;28;20444;-59
2022/04/28 00:20:37;;;;;;;9.50;6.57;;;10.20;1.00;;;;;;5105579;28;20167;-58
2022/04/28 00:23:02;;;;;;;8.10;7.23;;;10.10;1.00;;;;;;5095558;28;20178;-57
2022/04/28 00:25:28;;;;;;;7.63;6.70;;;10.10;1.00;;;;;;5103672;28;20925;-57
2022/04/28 00:27:54;;;;;;;8.13;7.33;;;10.10;1.00;;;;;;5100771;28;20652;-58
2022/04/28 00:30:20;;;;;;;7.90;6.70;;;10.00;1.00;;;;;;5100523;28;20239;-56
2022/04/28 00:32:46;;;;;;;8.70;7.30;;;10.00;1.00;;;;;;5100376;28;20722;-58
2022/04/28 00:35:11;;;;;;;8.00;7.20;;;9.90;1.00;;;;;;5098446;28;20452;-57
2022/04/28 00:37:37;;;;;;;9.50;7.13;;;9.90;1.00;;;;;;5101552;28;20920;-57
2022/04/28 00:40:03;;;;;;;8.20;7.27;;;9.90;1.00;;;;;;5096558;28;20189;-58
2022/04/28 00:42:29;;;;;;;7.47;6.77;;;9.90;1.00;;;;;;5101176;28;20222;-58
2022/04/28 00:44:54;;;;;;;8.43;7.00;;;9.80;1.00;;;;;;5102613;28;20542;-58
2022/04/28 00:47:22;;;;;;;7.67;6.97;;;9.80;1.00;;;;;;5096933;28;20548;-58
2022/04/28 00:52:33;;;;;;;9.53;7.30;;;9.70;1.00;;;;;;5093575;28;20845;-58
2022/04/28 00:54:59;;;;;;;8.07;7.37;;;9.60;1.00;;;;;;5094035;28;20472;-56
2022/04/28 00:57:26;;;;;;;7.80;7.10;;;9.60;1.00;;;;;;5099799;28;20443;-57
2022/04/28 00:59:52;;;;;;;8.23;7.43;;;9.60;1.00;;;;;;5098064;28;20545;-57
2022/04/28 01:02:18;;;;;;;8.10;7.30;;;9.60;1.00;;;;;;5103600;28;20439;-56
2022/04/28 01:04:45;;;;;;;8.03;7.23;;;9.60;1.00;;;;;;5101439;28;20480;-58
2022/04/28 01:07:11;;;;;;;8.33;7.63;;;9.60;1.00;;;;;;5100458;28;20440;-57
2022/04/28 01:09:37;;;;;;;8.40;7.60;;;9.60;1.00;;;;;;5104567;28;20475;-57
2022/04/28 01:12:14;;;;;;;11.67;8.10;;;9.60;1.00;;;;;;5096402;28;20463;-57
2022/04/28 01:14:41;;;;;;;7.97;7.13;;;9.60;1.00;;;;;;5099439;28;20968;-58
2022/04/28 01:17:07;;;;;;;8.83;7.30;;;9.50;1.00;;;;;;5103957;28;20465;-57
2022/04/28 01:19:32;;;;;;;11.17;8.03;;;9.40;1.00;;;;;;5106911;28;20948;-56
2022/04/28 01:21:58;;;;;;;9.70;8.00;;;;;;;;;;5097855;28;20619;-58
2022/04/28 01:24:24;;;;;;;8.70;7.90;;;9.30;1.00;;;;;;5102675;28;20299;-57
2022/04/28 01:26:53;;;;;;;10.07;7.67;;;9.30;1.00;;;;;;5099069;28;20459;-58
2022/04/28 01:29:18;;;;;;;9.00;7.90;;;9.30;1.00;;;;;;5105030;28;20556;-57
2022/04/28 01:31:44;;;;;;;12.30;8.23;;;9.30;1.00;;;;;;5108014;28;20924;-58
2022/04/28 01:34:09;;;;;;;9.83;7.63;;;9.30;1.00;;;;;;5094850;28;20684;-57
2022/04/28 01:36:35;;;;;;;8.50;7.70;;;9.30;1.00;;;;;;5106277;28;20214;-56
2022/04/28 01:39:01;;;;;;;11.83;8.23;;;9.30;1.00;;;;;;5102299;28;20269;-58
2022/04/28 01:41:26;;;;;;;8.80;7.90;;;9.30;1.00;;;;;;5102751;28;20187;-57
2022/04/28 01:43:52;;;;;;;8.60;7.73;;;9.20;1.00;;;;;;5103228;28;20221;-57
2022/04/28 01:46:18;;;;;;;9.93;8.80;;;9.20;1.00;;;;;;5104486;28;20182;-58
2022/04/28 01:48:44;;;;;;;9.70;8.70;;;9.20;1.00;;;;;;5103338;28;20190;-57
2022/04/28 01:56:41;;;;;;;9.60;8.63;;;;;;;;;;5098168;28;20580;-56
2022/04/28 01:59:07;;;;;;;9.03;8.10;;;9.10;1.00;;;;;;5099186;28;20534;-59
2022/04/28 02:01:32;;;;;;;9.80;8.07;;;9.00;1.00;;;;;;5100977;28;20551;-58
2022/04/28 02:03:58;;;;;;;12.10;8.43;;;9.10;1.00;;;;;;5093555;28;20632;-58
2022/04/28 02:06:23;;;;;;;10.17;8.80;;;9.10;1.00;;;;;;5105248;28;20197;-58
2022/04/28 02:08:50;;;;;;;9.47;8.03;;;9.10;1.00;;;;;;5103286;28;20191;-58
2022/04/28 02:11:16;;;;;;;9.83;8.30;;;9.10;1.00;;;;;;5104849;28;20242;-57
2022/04/28 02:13:41;;;;;;;9.10;7.50;;;9.00;1.00;;;;;;5097743;28;20452;-56
2022/04/28 02:16:13;;;;;;;9.80;8.80;;;9.00;1.00;;;;;;5105810;28;20283;-59
2022/04/28 02:18:38;;;;;;;8.87;7.97;;;9.00;1.00;;;;;;5099849;28;20174;-58
2022/04/28 02:21:16;;;;;;;10.80;7.83;;;8.90;1.00;;;;;;5108112;28;20439;-58
2022/04/28 02:23:41;;;;;;;9.50;8.47;;;8.90;1.00;;;;;;5109236;28;20194;-59
2022/04/28 02:26:13;;;;;;;13.53;8.07;;;8.80;1.00;;;;;;5110162;28;20488;-58
2022/04/28 02:28:38;;;;;;;9.97;8.80;;;8.80;1.00;;;;;;5107258;28;20513;-57
2022/04/28 02:31:13;;;;;;;12.63;9.20;;;8.70;1.00;;;;;;5104457;28;20508;-58
2022/04/28 02:33:39;;;;;;;8.70;7.80;;;8.80;1.00;;;;;;5098692;28;20658;-57
2022/04/28 02:36:15;;;;;;;9.30;8.17;;;8.70;1.00;;;;;;5100558;28;20495;-57
2022/04/28 02:38:41;;;;;;;10.43;8.73;;;8.60;1.00;;;;;;5092853;28;20592;-57
2022/04/28 02:41:19;;;;;;;10.30;8.57;;;10.90;1.00;;;;;;5105006;28;20534;-56
2022/04/28 02:43:45;;;;;;;9.80;8.80;;;8.50;1.00;;;;;;5110298;28;20225;-55
2022/04/28 02:46:17;;;;;;;12.20;9.13;;;8.40;1.00;;;;;;5107383;28;21140;-58
2022/04/28 02:48:43;;;;;;;9.63;8.00;;;8.50;1.00;;;;;;5092316;28;20261;-58
2022/04/28 02:51:15;;;;;;;12.70;8.50;;;8.40;1.00;;;;;;5095590;28;20832;-57
2022/04/28 02:53:41;;;;;;;11.33;9.17;;;8.40;1.00;;;;;;5104760;28;20190;-56
2022/04/28 02:56:17;;;;;;;9.20;8.30;;;8.30;1.00;;;;;;5106739;28;20475;-57
2022/04/28 02:58:43;;;;;;;11.80;9.20;;;8.30;1.00;;;;;;5097768;28;20194;-57
2022/04/28 03:01:14;;;;;;;10.87;8.53;;;8.30;1.00;;;;;;5105755;28;20456;-57
2022/04/28 03:03:40;;;;;;;9.20;8.20;;;8.30;1.00;;;;;;5107374;28;20593;-55
2022/04/28 03:11:43;;;;;;;10.73;8.90;;;;;;;;;;5095506;28;20801;-58
2022/04/28 03:14:10;;;;;;;9.60;8.57;;;8.20;1.00;;;;;;5105581;28;20447;-56
2022/04/28 03:16:36;;;;;;;11.10;9.50;;;8.30;1.00;;;;;;5101538;28;20852;-57
2022/04/28 03:19:02;;;;;;;9.33;8.40;;;8.30;1.00;;;;;;5098001;28;20505;-57
2022/04/28 03:21:28;;;;;;;13.63;8.97;;;8.30;1.00;;;;;;5099664;28;20187;-58
2022/04/28 03:23:54;;;;;;;10.90;8.67;;;8.30;1.00;;;;;;5102378;28;20531;-58
2022/04/28 03:26:19;;;;;;;10.23;9.17;;;8.20;1.00;;;;;;5102865;28;20186;-57
2022/04/28 03:28:45;;;;;;;9.50;8.07;;;8.20;1.00;;;;;;5103862;28;20189;-57
2022/04/28 03:31:17;;;;;;;10.37;8.87;;;8.20;1.00;;;;;;5107017;28;20264;-56
2022/04/28 03:33:42;;;;;;;12.47;9.27;;;8.20;1.00;;;;;;5101676;28;20276;-57
2022/04/28 03:38:59;;;;;;;9.67;8.57;;;;;;;;;;5102831;28;20725;-58
2022/04/28 03:41:25;;;;;;;12.27;10.23;;;8.10;1.00;;;;;;5096332;28;20445;-58
2022/04/28 03:43:50;;;;;;;10.47;9.13;;;8.10;1.00;;;;;;5101198;28;20476;-58
2022/04/28 03:46:17;;;;;;;12.00;8.90;;;8.10;1.00;;;;;;5101726;28;20197;-57
2022/04/28 03:48:43;;;;;;;11.93;9.83;;;8.10;1.00;;;;;;5106098;28;20190;-57
2022/04/28 03:51:16;;;;;;;8.33;7.53;;;8.00;1.00;;;;;;5107407;28;20443;-58
2022/04/28 03:53:42;;;;;;;9.30;8.30;;;8.20;1.00;;;;;;5105703;28;20211;-57
2022/04/28 03:56:14;;;;;;;10.27;9.23;;;8.40;1.00;;;;;;5102398;28;20471;-58
2022/04/28 03:58:39;;;;;;;8.97;8.07;;;8.40;1.00;;;;;;5095516;28;20199;-56
2022/04/28 04:01:15;;;;;;;9.13;8.23;;;8.50;1.00;;;;;;5092030;28;20460;-58
2022/04/28 04:03:40;;;;;;;9.03;8.10;;;8.50;1.00;;;;;;5100647;28;20201;-56
2022/04/28 04:06:19;;;;;;;10.00;8.90;;;8.60;1.00;;;;;;5095754;28;20433;-57
2022/04/28 04:08:45;;;;;;;9.67;8.30;;;8.70;1.00;;;;;;5096138;28;20439;-57
2022/04/28 04:11:14;;;;;;;11.03;8.03;;;8.70;1.00;;;;;;5094283;28;20447;-62
2022/04/28 04:13:39;;;;;;;9.60;8.70;;;8.70;1.00;;;;;;5101260;28;20456;-62
2022/04/28 04:16:14;;;;;;;12.40;9.27;;;8.70;1.00;;;;;;5101749;28;20524;-62
2022/04/28 04:18:40;;;;;;;8.70;7.90;;;8.70;1.00;;;;;;5091959;28;20663;-61
2022/04/28 04:21:14;;;;;;;10.60;8.10;;;8.70;1.00;;;;;;5097144;28;20436;-61
2022/04/28 04:23:40;;;;;;;11.53;9.07;;;8.70;1.00;;;;;;5104346;28;20638;-62
2022/04/28 04:26:15;;;;;;;8.77;7.87;;;8.80;1.00;;;;;;5101657;28;20474;-61
2022/04/28 04:28:40;;;;;;;9.27;8.30;;;8.80;1.00;;;;;;5101676;28;20234;-56
2022/04/28 04:33:59;;;;;;;9.80;8.57;;;8.90;1.00;;;;;;5103189;28;20255;-56
2022/04/28 04:36:24;;;;;;;8.03;7.20;;;8.90;1.00;;;;;;5096928;28;20464;-57
2022/04/28 04:38:50;;;;;;;10.27;9.27;;;8.90;1.00;;;;;;5102351;28;20170;-57
2022/04/28 04:41:15;;;;;;;8.43;7.63;;;9.00;1.00;;;;;;5105974;28;20175;-57
2022/04/28 04:43:41;;;;;;;10.40;9.30;;;9.00;1.00;;;;;;5105879;28;20257;-57
2022/04/28 04:46:12;;;;;;;13.20;8.80;;;9.00;1.00;;;;;;5103026;28;20190;-57
2022/04/28 04:48:38;;;;;;;9.80;8.80;;;9.00;1.00;;;;;;5108037;28;20285;-56
2022/04/28 04:51:13;;;;;;;9.73;8.73;;;9.00;1.00;;;;;;5095757;28;20948;-57
2022/04/28 04:53:39;;;;;;;9.83;8.37;;;9.00;1.00;;;;;;5097496;28;20543;-56
2022/04/28 04:56:05;;;;;;;8.77;7.47;;;9.00;1.00;;;;;;5091845;28;20467;-57
2022/04/28 04:58:31;;;;;;;11.60;7.90;;;;;;;;;;5107828;28;20196;-57
2022/04/28 05:00:56;;;;;;;8.70;7.80;;;8.90;1.00;;;;;;5095428;28;20186;-58
2022/04/28 05:03:22;;;;;;;10.03;8.73;;;8.90;1.00;;;;;;5102083;28;20819;-57
2022/04/28 05:05:47;;;;;;;8.97;8.17;;;9.00;1.00;;;;;;5094832;28;20232;-57
2022/04/28 05:08:14;;;;;;;9.87;8.87;;;9.00;1.00;;;;;;5097029;28;20202;-57
2022/04/28 05:10:40;;;;;;;9.77;8.00;;;9.10;1.00;;;;;;5103570;28;20536;-57
2022/04/28 05:13:05;;;;;;;10.80;6.80;;;9.20;1.00;;;;;;5107247;28;20452;-58
2022/04/28 05:15:31;;;;;;;9.47;8.47;;;9.20;1.00;;;;;;5096903;28;20578;-58
2022/04/28 05:17:56;;;;;;;10.00;8.33;;;9.40;1.00;;;;;;5095165;28;20187;-57
2022/04/28 05:20:22;;;;;;;9.63;8.33;;;9.40;1.00;;;;;;5102274;28;20186;-57
2022/04/28 05:22:48;;;;;;;9.67;8.67;;;9.40;1.00;;;;;;5093484;28;20178;-57
2022/04/28 05:25:14;;;;;;;12.10;8.60;;;9.50;1.00;;;;;;5100092;28;20224;-55
2022/04/28 05:27:40;;;;;;;8.80;8.00;;;9.50;1.00;;;;;;5102662;28;20500;-58
2022/04/28 05:30:06;;;;;;;8.80;7.83;;;9.60;1.00;;;;;;5097781;28;20447;-59
2022/04/28 05:32:32;;;;;;;9.97;8.97;;;9.70;1.00;;;;;;5105384;28;20480;-57
2022/04/28 05:34:57;;;;;;;9.40;8.27;;;9.80;1.00;;;;;;5103336;28;20463;-56
2022/04/28 05:37:24;;;;;;;10.23;8.47;;;9.80;1.00;;;;;;5108147;28;20547;-57
2022/04/28 05:39:50;;;;;;;8.23;7.43;;;9.80;1.00;;;;;;5109197;28;20515;-57
2022/04/28 05:42:16;;;;;;;11.90;7.00;;;10.20;1.00;;;;;;5110181;28;20448;-56
2022/04/28 05:47:25;;;;;;;12.27;8.03;;;10.30;1.00;;;;;;5097423;28;20488;-57
2022/04/28 05:49:52;;;;;;;10.50;7.70;;;10.40;1.00;;;;;;5107108;28;20444;-57
2022/04/28 05:52:17;;;;;;;9.70;8.60;;;10.50;1.00;;;;;;5112446;28;20186;-56
2022/04/28 05:54:43;;;;;;;10.17;8.80;;;10.60;1.00;;;;;;5102703;28;20428;-57
2022/04/28 05:57:08;;;;;;;8.33;7.20;;;10.80;1.00;;;;;;5093509;28;20185;-58
2022/04/28 05:59:34;;;;;;;9.93;8.20;;;10.80;1.00;;;;;;5109139;28;20267;-57
2022/04/28 06:01:59;;;;;;;10.40;8.10;;;10.90;1.00;;;;;;5109335;28;20182;-57
2022/04/28 06:04:25;;;;;;;10.10;8.40;;;11.00;1.00;;;;;;5111757;28;20194;-59
2022/04/28 06:06:50;;;;;;;8.80;7.57;;;11.10;1.00;;;;;;5108560;28;20201;-56
2022/04/28 06:09:16;;;;;;;8.60;7.40;;;11.20;1.00;;;;;;5112597;28;20178;-56
2022/04/28 06:11:42;;;;;;;10.03;8.40;;;11.30;1.00;;;;;;5113350;28;20205;-57
2022/04/28 06:14:07;;;;;;;10.63;8.70;;;11.50;1.00;;;;;;5096502;28;20195;-58
2022/04/28 06:16:33;;;;;;;8.30;7.50;;;11.50;1.00;;;;;;5097076;28;20214;-58
2022/04/28 06:18:58;;;;;;;12.43;9.13;;;11.60;1.00;;;;;;5096978;28;20179;-57
2022/04/28 06:21:24;;;;;;;8.63;7.80;;;11.80;1.00;;;;;;5097300;28;20178;-57
2022/04/28 06:23:50;;;;;;;10.53;9.47;;;12.80;1.00;;;;;;5112467;28;20178;-58
2022/04/28 06:26:16;;;;;;;8.43;7.63;;;12.30;1.00;;;;;;5112325;28;20208;-58
2022/04/28 06:28:41;;;;;;;9.13;8.23;;;12.20;1.00;;;;;;5111423;28;20432;-57
2022/04/28 06:31:10;;;;;;;9.23;8.33;;;12.30;1.00;;;;;;5111907;28;20631;-57
2022/04/28 06:33:40;;;;;;;13.13;7.90;;;12.50;1.00;;;;;;5112285;28;20588;-56
2022/04/28 06:36:08;;;;;;;10.83;8.63;;;12.50;1.00;;;;;;5111970;28;20465;-58
2022/04/28 06:38:34;;;;;;;9.47;8.57;;;12.50;1.00;;;;;;5102074;28;20530;-57
2022/04/28 06:41:00;;;;;;;9.13;8.23;;;12.60;1.00;;;;;;5112332;28;20530;-57
2022/04/28 06:43:25;;;;;;;9.43;8.47;;;12.70;1.00;;;;;;5110405;28;20214;-58
2022/04/28 06:48:35;;;;;;;12.07;9.40;;;13.10;1.00;;;;;;5096954;28;20255;-57
2022/04/28 06:51:00;;;;;;;8.37;7.67;;;13.50;1.00;;;;;;5108966;28;20932;-57
2022/04/28 06:53:26;;;;;;;10.53;9.13;;;13.80;1.00;;;;;;5106319;28;20186;-57
2022/04/28 06:55:52;;;;;;;9.77;8.77;;;14.20;1.00;;;;;;5106907;28;20202;-56
2022/04/28 06:58:21;;;;;;;12.30;10.50;;;14.20;1.00;;;;;;5111213;28;20182;-56
2022/04/28 07:00:48;;;;;;;10.17;9.17;;;14.20;1.00;;;;;;5109201;28;20583;-58
2022/04/28 07:03:13;;;;;;;9.83;8.93;;;14.30;1.00;;;;;;5103746;28;20456;-57
2022/04/28 07:05:39;;;;;;;9.80;8.53;;;14.30;1.00;;;;;;5112369;28;20435;-57
2022/04/28 07:08:05;;;;;;;9.20;8.30;;;14.30;1.00;;;;;;5111126;28;20194;-57
2022/04/28 07:10:30;;;;;;;14.03;9.80;;;14.70;1.00;;;;;;5110966;28;20186;-58
2022/04/28 07:12:56;;;;;;;10.37;9.10;;;14.80;1.00;;;;;;5096606;28;20949;-56
2022/04/28 07:15:22;;;;;;;9.70;8.70;;;15.00;1.00;;;;;;5091550;28;20667;-57
2022/04/28 07:17:47;;;;;;;9.80;8.20;;;15.00;1.00;;;;;;5098496;28;20260;-57
2022/04/28 07:20:13;;;;;;;11.13;9.93;;;15.00;1.00;;;;;;5094425;28;20201;-56
2022/04/28 07:22:39;;;;;;;12.63;9.50;;;15.00;1.00;;;;;;5102929;28;20185;-56
2022/04/28 07:25:05;;;;;;;14.10;9.40;;;15.10;1.00;;;;;;5109339;28;20189;-57
2022/04/28 07:27:31;;;;;;;14.00;8.90;;;15.10;1.00;;;;;;5095461;28;20443;-57
2022/04/28 07:29:56;;;;;;;11.13;9.93;;;14.60;1.00;;;;;;5100870;28;20444;-56
2022/04/28 07:32:22;;;;;;;16.80;9.47;;;14.50;1.00;;;;;;5078958;28;20198;-56
2022/04/28 07:34:47;;;;;;;10.53;9.43;;;14.40;1.00;;;;;;5091469;28;20191;-57
2022/04/28 07:37:13;;;;;;;10.93;9.90;;;14.40;1.00;;;;;;5104499;28;20197;-56
2022/04/28 07:39:38;;;;;;;10.53;9.53;;;14.40;1.00;;;;;;5107190;28;20754;-57
2022/04/28 07:42:04;;;;;;;12.40;10.50;;;14.60;1.00;;;;;;5105139;28;20190;-57
2022/04/28 07:44:30;;;;;;;11.50;10.30;;;15.00;1.00;;;;;;5095291;28;20186;-58
2022/04/28 07:46:56;;;;;;;13.13;11.30;;;15.50;1.00;;;;;;5092836;28;20257;-57
2022/04/28 07:49:22;;;;;;;12.10;10.77;;;16.00;1.00;;;;;;5091168;28;20277;-57
2022/04/28 07:51:47;;;;;;;12.60;11.30;;;16.30;1.00;;;;;;5091739;28;21043;-58
2022/04/28 07:54:13;;;;;;;12.50;10.70;;;16.40;1.00;;;;;;5091148;28;20206;-57
2022/04/28 07:56:38;;;;;;;12.20;10.67;;;16.60;1.00;;;;;;5106462;28;20228;-58
2022/04/28 07:59:07;;;;;;;12.00;10.80;;;16.80;1.00;;;;;;5102450;28;20257;-57
2022/04/28 08:01:32;;;;;;;14.90;11.83;;;16.80;1.00;;;;;;5093504;28;20189;-58
2022/04/28 08:03:59;;;;;;;14.50;11.57;;;17.10;1.00;;;;;;5098413;28;20432;-57
2022/04/28 08:06:25;;;;;;;12.60;11.30;;;17.10;1.00;;;;;;5106724;28;20197;-58
2022/04/28 08:08:50;;;;;;;11.83;10.63;;;17.10;1.00;;;;;;5101843;28;20430;-57
2022/04/28 08:11:16;;;;;;;11.37;9.53;;;16.90;1.00;;;;;;5090781;28;20220;-59
2022/04/28 08:13:42;;;;;;;10.97;9.87;;;16.50;1.00;;;;;;5074666;28;20187;-58
2022/04/28 08:16:10;;;;;;;11.37;9.93;;;16.40;1.00;;;;;;5090927;28;20238;-57
2022/04/28 08:18:37;;;;;;;10.87;9.80;;;16.20;1.00;;;;;;5105953;28;20182;-57
2022/04/28 08:21:09;;;;;;;10.90;9.90;;;16.40;1.00;;;;;;5111149;28;20432;-56
2022/04/28 08:23:37;;;;;;;11.13;9.13;;;16.40;1.00;;;;;;5097810;28;20961;-58
2022/04/28 08:26:29;;;;;;;13.60;10.80;;;16.50;1.00;;;;;;5095225;28;21069;-58
2022/04/28 08:28:55;;;;;;;11.90;9.90;;;16.40;1.00;;;;;;5077996;28;20449;-57
2022/04/28 08:31:21;;;;;;;16.83;10.60;;;;;;;;;;5110307;28;20420;-56
2022/04/28 08:33:48;;;;;;;11.30;9.07;;;16.70;1.00;;;;;;5077754;28;20190;-57
2022/04/28 08:36:15;;;;;;;10.73;8.23;;;16.70;1.00;;;;;;5090103;28;20479;-58
2022/04/28 08:38:42;;;;;;;11.90;9.03;;;16.90;1.00;;;;;;5090124;28;20452;-57
2022/04/28 08:41:11;;;;;;;9.53;8.63;;;17.10;1.00;;;;;;5090509;28;20433;-58
2022/04/28 08:43:37;;;;;;;13.63;8.20;;;;;;;;;;5108755;28;20438;-58
2022/04/28 08:48:55;;;;;;;9.23;7.10;;;18.00;1.00;;;;;;5092273;28;20490;-58
2022/04/28 08:51:24;;;;;;;10.27;8.00;;;18.00;1.00;;;;;;5103994;28;20436;-58
2022/04/28 08:53:51;;;;;;;13.73;8.93;;;18.20;1.00;;;;;;5087354;28;20451;-59
2022/04/28 08:56:20;;;;;;;9.07;8.10;;;18.80;1.00;;;;;;5106722;28;20468;-59
2022/04/28 08:58:47;;;;;;;9.63;8.73;;;18.50;1.00;;;;;;5109516;28;20978;-59
2022/04/28 09:01:14;;;;;;;11.93;9.13;;;20.20;1.00;;;;;;5105166;28;21030;-58
2022/04/28 09:03:41;;;;;;;9.10;7.47;;;18.30;1.00;;;;;;5091915;28;20439;-59
2022/04/28 09:06:17;;;;;;;9.80;8.40;;;18.80;1.00;;;;;;5089756;28;20887;-59
2022/04/28 09:08:44;;;;;;;9.37;8.47;;;18.70;1.00;;;;;;5089589;28;20411;-60
2022/04/28 09:11:20;;;;;;;9.80;8.70;;;18.70;1.00;;;;;;5089904;28;20440;-58
2022/04/28 09:14:09;;;;;;;9.80;8.80;;;18.60;1.00;;;;;;5092795;28;20410;-59
2022/04/28 09:16:48;;;;;;;9.13;8.23;;;18.10;1.00;;;;;;5112891;28;20454;-58
2022/04/28 09:19:19;;;;;;;9.77;8.77;;;18.50;1.00;;;;;;5111103;28;20967;-58
2022/04/28 09:21:46;;;;;;;10.03;9.07;;;18.60;1.00;;;;;;5108473;28;21001;-60
2022/04/28 09:24:13;;;;;;;9.40;8.50;;;18.70;1.00;;;;;;5098895;28;21021;-58
2022/04/28 09:26:40;;;;;;;12.40;9.33;;;19.40;1.00;;;;;;5103463;28;20504;-60
2022/04/28 09:29:09;;;;;;;9.83;8.93;;;19.50;1.00;;;;;;5114209;28;20988;-59
2022/04/28 09:31:37;;;;;;;10.97;9.33;;;19.60;1.00;;;;;;5113047;28;21008;-59
2022/04/28 09:34:13;;;;;;;10.20;8.90;;;19.30;1.00;;;;;;5094217;28;20787;-59
2022/04/28 09:36:40;;;;;;;9.73;8.77;;;19.20;1.00;;;;;;5077741;28;20461;-58
2022/04/28 09:39:07;;;;;;;12.80;8.90;;;19.40;1.00;;;;;;5075608;28;20423;-60
2022/04/28 09:44:20;;;;;;;6.93;6.33;;;19.40;1.00;;;;;;5106143;28;20473;-59
2022/04/28 09:46:46;;;;;;;7.20;6.50;;;19.00;1.00;;;;;;5095323;28;20489;-59
2022/04/28 09:49:16;;;;;;;9.40;7.13;;;18.90;1.00;;;;;;5100129;28;20477;-59
2022/04/28 09:51:43;;;;;;;9.40;8.37;;;18.90;1.00;;;;;;5105210;28;20406;-59
2022/04/28 09:54:10;;;;;;;9.67;7.93;;;19.10;1.00;;;;;;5110247;28;20442;-59
2022/04/28 09:56:38;;;;;;;10.30;9.20;;;19.50;1.00;;;;;;5099618;28;20471;-59
2022/04/28 09:59:05;;;;;;;10.23;8.43;;;19.50;1.00;;;;;;5112993;28;20471;-60
2022/04/28 10:01:32;;;;;;;10.80;9.17;;;19.50;1.00;;;;;;5106464;28;20453;-59
2022/04/28 10:03:58;;;;;;;10.10;8.43;;;19.50;1.00;;;;;;5112453;28;20924;-59
2022/04/28 10:06:32;;;;;;;8.70;7.80;;;19.20;1.00;;;;;;5113654;28;20497;-58
2022/04/28 10:09:01;;;;;;;12.90;8.80;;;19.40;1.00;;;;;;5112183;28;20502;-59
2022/04/28 10:11:28;;;;;;;9.50;8.60;;;19.40;1.00;;;;;;5104606;28;20527;-58
2022/04/28 10:13:55;;;;;;;8.97;8.07;;;19.60;1.00;;;;;;5100170;28;20443;-60
2022/04/28 10:16:23;;;;;;;12.70;8.73;;;19.60;1.00;;;;;;5102551;28;20471;-60
2022/04/28 10:18:55;;;;;;;13.07;8.63;;;19.30;1.00;;;;;;5105340;28;20472;-59
2022/04/28 10:21:26;;;;;;;10.20;9.20;;;19.30;1.00;;;;;;5106097;28;20946;-62
2022/04/28 10:32:58;;;;;;;9.70;8.73;;;19.20;1.00;;;;;;5105565;28;20496;-62
2022/04/28 10:35:38;;;;;;;9.00;8.17;;;19.20;1.00;;;;;;5096413;28;20490;-62
2022/04/28 10:38:31;;;;;;;9.13;8.33;;;19.90;1.00;;;;;;5110955;28;20928;-62
2022/04/28 10:40:57;;;;;;;11.07;8.27;;;19.20;1.00;;;;;;5107759;28;20920;-63
2022/04/28 10:43:39;;;;;;;9.80;8.90;;;19.20;1.00;;;;;;5103842;28;20525;-64
2022/04/28 10:46:08;;;;;;;9.23;8.33;;;19.40;1.00;;;;;;5103628;28;20216;-62
2022/04/28 10:48:44;;;;;;;9.33;8.23;;;19.00;1.00;;;;;;5097213;28;20441;-63
2022/04/28 10:51:18;;;;;;;9.97;8.40;;;19.00;1.00;;;;;;5107034;28;20482;-63
2022/04/28 10:53:59;;;;;;;8.70;7.80;;;18.90;1.00;;;;;;5111152;28;20447;-58
2022/04/28 10:56:52;;;;;;;10.10;9.10;;;19.40;1.00;;;;;;5109219;28;20467;-59
2022/04/28 10:59:34;;;;;;;10.60;9.50;;;19.50;1.00;;;;;;5092378;28;20531;-58
2022/04/28 11:02:13;;;;;;;10.53;9.53;;;19.40;1.00;;;;;;5101895;28;20948;-59
2022/04/28 11:04:40;;;;;;;9.90;9.00;;;19.10;1.00;;;;;;5097875;28;20471;-58
2022/04/28 11:07:19;;;;;;;11.67;9.87;;;18.90;1.00;;;;;;5099309;28;20410;-58
2022/04/28 11:09:50;;;;;;;10.90;9.80;;;19.00;1.00;;;;;;5101047;28;20849;-59
2022/04/28 11:12:18;;;;;;;9.37;8.43;;;19.00;1.00;;;;;;5108041;28;20447;-59
2022/04/28 11:14:46;;;;;;;9.90;8.90;;;19.20;1.00;;;;;;5101919;28;20506;-59
2022/04/28 11:17:12;;;;;;;10.10;9.10;;;19.40;1.00;;;;;;5098788;28;20483;-59
2022/04/28 11:19:39;;;;;;;10.23;9.23;;;19.70;1.00;;;;;;5081982;28;20453;-58
2022/04/28 11:22:05;;;;;;;12.07;10.90;;;19.70;1.00;;;;;;5100172;28;20449;-58
2022/04/28 11:24:30;;;;;;;9.83;8.93;;;19.90;1.00;;;;;;5103774;28;20426;-58
2022/04/28 11:26:59;;;;;;;11.43;10.23;;;20.20;1.00;;;;;;5101629;28;20197;-59
2022/04/28 11:29:28;;;;;;;11.87;10.10;;;20.30;1.00;;;;;;5097370;28;20613;-59
2022/04/28 11:31:55;;;;;;;12.73;11.43;;;20.40;1.00;;;;;;5101915;28;20594;-57
2022/04/28 11:34:21;;;;;;;13.67;11.40;;;20.30;1.00;;;;;;5103464;28;20452;-58
2022/04/28 11:36:46;;;;;;;13.00;10.63;;;20.30;1.00;;;;;;5101498;28;20460;-59
2022/04/28 11:39:12;;;;;;;12.27;10.43;;;20.10;1.00;;;;;;5106043;28;20453;-59
2022/04/28 11:41:42;;;;;;;13.20;11.47;;;20.00;1.00;;;;;;5105602;28;20615;-60
2022/04/28 11:44:11;;;;;;;11.97;10.87;;;20.20;1.00;;;;;;5100415;28;20267;-58
2022/04/28 11:46:58;;;;;;;11.67;10.57;;;20.10;1.00;;;;;;5101050;28;20415;-59
2022/04/28 11:49:23;;;;;;;10.97;10.00;;;19.90;1.00;;;;;;5101747;28;20945;-60
2022/04/28 11:51:51;;;;;;;12.63;11.43;;;20.10;1.00;;;;;;5101849;28;20443;-58
2022/04/28 11:54:23;;;;;;;14.87;11.67;;;20.00;1.00;;;;;;5105974;28;20195;-59
2022/04/28 11:56:49;;;;;;;14.33;12.83;;;19.90;1.00;;;;;;5101054;28;21967;-58
2022/04/28 11:59:14;;;;;;;14.97;12.43;;;20.00;1.00;;;;;;5105154;28;20520;-59
2022/04/28 12:01:40;;;;;;;12.90;11.57;;;19.80;1.00;;;;;;5102539;28;20715;-59
2022/04/28 12:04:06;;;;;;;12.97;11.70;;;19.80;1.00;;;;;;5101960;28;20265;-59
2022/04/28 12:06:32;;;;;;;13.40;11.73;;;19.90;1.00;;;;;;5097798;28;20603;-58
2022/04/28 12:14:21;;;;;;;13.83;11.03;;;20.10;1.00;;;;;;5086807;28;20272;-58
2022/04/28 12:14:31;;;;;;;10.87;9.60;;;20.60;1.00;;;;;;5104842;28;20509;-58
2022/04/28 12:19:50;;;;;;;12.87;10.80;;;20.40;1.00;;;;;;5105441;28;21114;-59
2022/04/28 12:22:34;;;;;;;10.37;9.47;;;20.60;1.00;;;;;;5101660;28;20521;-59
2022/04/28 12:25:11;;;;;;;11.30;10.20;;;20.80;1.00;;;;;;5098974;28;20440;-59
2022/04/28 12:27:44;;;;;;;12.90;11.30;;;20.80;1.00;;;;;;5098495;28;20439;-59
2022/04/28 12:30:13;;;;;;;12.97;10.83;;;20.90;1.00;;;;;;5103073;28;20432;-58
2022/04/28 12:32:59;;;;;;;12.50;10.93;;;20.70;1.00;;;;;;5078739;28;20439;-58
2022/04/28 12:35:32;;;;;;;16.33;12.33;;;20.90;1.00;;;;;;5099130;28;20447;-57
2022/04/28 12:38:01;;;;;;;11.93;10.47;;;20.70;1.00;;;;;;5100448;28;20433;-58
2022/04/28 12:40:34;;;;;;;11.93;10.83;;;20.70;1.00;;;;;;5104645;28;20432;-60
2022/04/28 12:43:00;;;;;;;13.00;11.70;;;20.70;1.00;;;;;;5101657;28;20461;-59
2022/04/28 12:45:54;;;;;;;11.43;10.33;;;20.40;1.00;;;;;;5098462;28;20451;-58
2022/04/28 12:48:30;;;;;;;14.30;10.43;;;20.20;1.00;;;;;;5098841;28;20580;-58
2022/04/28 12:51:24;;;;;;;11.27;10.23;;;20.20;1.00;;;;;;5100872;28;20439;-58
2022/04/28 12:53:52;;;;;;;12.63;9.90;;;20.20;1.00;;;;;;5094497;28;20437;-59
2022/04/28 12:56:31;;;;;;;12.60;9.93;;;18.40;1.00;;;;;;5100381;28;20467;-58
2022/04/28 12:59:02;;;;;;;10.17;9.17;;;20.10;1.00;;;;;;5087913;28;20825;-58
2022/04/28 13:01:29;;;;;;;10.00;9.00;;;20.10;1.00;;;;;;5103544;28;20449;-58
2022/04/28 13:03:56;;;;;;;10.40;9.30;;;20.10;1.00;;;;;;5102424;28;20982;-59
2022/04/28 13:06:27;;;;;;;9.73;8.83;;;20.10;1.00;;;;;;5100534;28;20490;-58
2022/04/28 13:08:54;;;;;;;11.63;10.50;;;20.00;1.00;;;;;;5098949;28;20472;-58
2022/04/28 13:11:35;;;;;;;12.30;11.00;;;19.80;1.00;;;;;;5100674;28;20805;-57
2022/04/28 13:14:02;;;;;;;30.67;14.27;;;19.80;1.00;;;;;;5099477;28;21276;-57
2022/04/28 13:16:28;;;;;;;13.40;8.87;;;20.20;1.00;;;;;;5076672;28;20463;-58
2022/04/28 13:18:55;;;;;;;9.50;8.57;;;20.40;1.00;;;;;;5103445;28;20464;-58
2022/04/28 13:21:21;;;;;;;8.40;7.70;;;20.40;1.00;;;;;;5106634;28;20474;-59
2022/04/28 13:23:47;;;;;;;9.13;8.23;;;20.50;1.00;;;;;;5106858;28;20543;-57
2022/04/28 13:26:21;;;;;;;9.17;8.30;;;20.60;1.00;;;;;;5103978;28;20946;-58
2022/04/28 13:28:48;;;;;;;11.10;9.97;;;20.60;1.00;;;;;;5099361;28;20517;-59
2022/04/28 13:31:28;;;;;;;9.77;8.87;;;20.70;1.00;;;;;;5093722;28;20446;-58
2022/04/28 13:33:54;;;;;;;10.33;7.50;;;20.50;1.00;;;;;;5098132;28;20867;-59
2022/04/28 13:36:20;;;;;;;8.70;8.00;;;20.50;1.00;;;;;;5106180;28;20460;-59
2022/04/28 13:38:46;;;;;;;7.30;6.60;;;20.30;1.00;;;;;;5099030;28;20440;-59
2022/04/28 13:41:18;;;;;;;8.27;7.57;;;20.30;1.00;;;;;;5101065;28;20431;-59
2022/04/28 13:43:44;;;;;;;8.67;7.80;;;20.20;1.00;;;;;;5096102;28;20472;-58
2022/04/28 13:46:26;;;;;;;9.10;8.07;;;20.50;1.00;;;;;;5105015;28;20913;-58